createdAt,value
2019-03-06T00:00:42.405Z,967.71
2019-03-06T00:01:42.326Z,967.61
2019-03-06T00:02:42.273Z,967.68
2019-03-06T00:03:42.361Z,967.64
2019-03-06T00:04:42.351Z,967.72
2019-03-06T00:05:42.337Z,967.73
2019-03-06T00:06:42.321Z,967.75
2019-03-06T00:07:42.355Z,967.67
2019-03-06T00:08:42.311Z,967.66
2019-03-06T00:09:42.297Z,967.68
2019-03-06T00:10:42.288Z,967.68
2019-03-06T00:11:42.279Z,967.68
2019-03-06T00:12:42.273Z,967.64
2019-03-06T00:13:42.296Z,967.74
2019-03-06T00:14:42.275Z,967.71
2019-03-06T00:15:42.228Z,967.70
2019-03-06T00:16:42.219Z,967.68
2019-03-06T00:17:42.211Z,967.76
2019-03-06T00:18:42.205Z,967.71
2019-03-06T00:19:42.247Z,967.69
2019-03-06T00:20:42.184Z,967.65
2019-03-06T00:21:42.171Z,967.65
2019-03-06T00:22:42.153Z,967.67
2019-03-06T00:23:42.140Z,967.74
2019-03-06T00:24:42.134Z,967.73
2019-03-06T00:25:42.159Z,967.68
2019-03-06T00:26:42.097Z,967.73
2019-03-06T00:27:42.098Z,967.73
2019-03-06T00:28:42.088Z,967.78
2019-03-06T00:29:42.074Z,967.73
2019-03-06T00:30:42.068Z,967.74
2019-03-06T00:31:42.119Z,967.71
2019-03-06T00:32:42.053Z,967.69
2019-03-06T00:33:42.049Z,967.67
2019-03-06T00:34:42.003Z,967.70
2019-03-06T00:35:42.049Z,967.66
2019-03-06T00:36:41.990Z,967.66
2019-03-06T00:37:42.015Z,967.55
2019-03-06T00:38:41.963Z,967.53
2019-03-06T00:39:41.954Z,967.53
2019-03-06T00:40:42.005Z,967.58
2019-03-06T00:41:41.947Z,967.57
2019-03-06T00:42:41.943Z,967.54
2019-03-06T00:43:41.972Z,967.54
2019-03-06T00:44:41.924Z,967.60
2019-03-06T00:45:41.913Z,967.62
2019-03-06T00:46:41.907Z,967.60
2019-03-06T00:47:41.896Z,967.63
2019-03-06T00:48:41.876Z,967.62
2019-03-06T00:49:41.883Z,967.61
2019-03-06T00:50:41.832Z,967.59
2019-03-06T00:51:41.827Z,967.56
2019-03-06T00:52:41.831Z,967.64
2019-03-06T00:53:41.826Z,967.54
2019-03-06T00:54:41.830Z,967.58
2019-03-06T00:55:41.821Z,967.54
2019-03-06T00:56:41.774Z,967.53
2019-03-06T00:57:41.753Z,967.55
2019-03-06T00:58:41.781Z,967.53
2019-03-06T00:59:41.733Z,967.51
2019-03-06T01:00:41.637Z,967.55
2019-03-06T01:01:41.747Z,967.56
2019-03-06T01:02:41.631Z,967.53
2019-03-06T01:03:41.698Z,967.52
2019-03-06T01:04:41.689Z,967.51
2019-03-06T01:05:41.678Z,967.47
2019-03-06T01:06:41.656Z,967.45
2019-03-06T01:07:41.691Z,967.41
2019-03-06T01:08:41.638Z,967.50
2019-03-06T01:09:41.649Z,967.50
2019-03-06T01:10:41.621Z,967.49
2019-03-06T01:11:41.616Z,967.44
2019-03-06T01:12:41.586Z,967.51
2019-03-06T01:13:41.619Z,967.48
2019-03-06T01:14:41.589Z,967.47
2019-03-06T01:15:41.606Z,967.44
2019-03-06T01:16:41.566Z,967.43
2019-03-06T01:17:41.548Z,967.45
2019-03-06T01:18:41.558Z,967.46
2019-03-06T01:19:41.613Z,967.38
2019-03-06T01:20:41.554Z,967.38
2019-03-06T01:21:41.504Z,967.36
2019-03-06T01:22:41.492Z,967.47
2019-03-06T01:23:41.481Z,967.31
2019-03-06T01:24:41.466Z,967.39
2019-03-06T01:25:41.503Z,967.31
2019-03-06T01:26:41.460Z,967.36
2019-03-06T01:27:41.453Z,967.34
2019-03-06T01:28:41.439Z,967.29
2019-03-06T01:29:41.425Z,967.34
2019-03-06T01:30:41.433Z,967.31
2019-03-06T01:31:41.453Z,967.25
2019-03-06T01:32:41.395Z,967.29
2019-03-06T01:33:41.383Z,967.21
2019-03-06T01:34:41.355Z,967.25
2019-03-06T01:35:41.349Z,967.32
2019-03-06T01:36:41.337Z,967.28
2019-03-06T01:37:41.369Z,967.25
2019-03-06T01:38:41.317Z,967.24
2019-03-06T01:39:41.313Z,967.21
2019-03-06T01:40:41.296Z,967.20
2019-03-06T01:41:41.281Z,967.16
2019-03-06T01:42:41.271Z,967.16
2019-03-06T01:43:41.296Z,967.24
2019-03-06T01:44:41.265Z,967.11
2019-03-06T01:45:41.342Z,967.10
2019-03-06T01:46:41.312Z,967.14
2019-03-06T01:47:41.308Z,967.12
2019-03-06T01:48:41.278Z,967.09
2019-03-06T01:49:41.345Z,967.11
2019-03-06T01:50:41.261Z,967.12
2019-03-06T01:51:41.418Z,967.12
2019-03-06T01:52:41.225Z,967.16
2019-03-06T01:53:41.202Z,967.12
2019-03-06T01:54:41.259Z,967.07
2019-03-06T01:55:41.143Z,967.05
2019-03-06T01:56:41.118Z,967.10
2019-03-06T01:57:41.113Z,967.09
2019-03-06T01:58:41.093Z,967.15
2019-03-06T01:59:41.086Z,967.06
2019-03-06T02:00:41.112Z,967.12
2019-03-06T02:01:41.083Z,967.10
2019-03-06T02:02:41.073Z,967.05
2019-03-06T02:03:41.086Z,967.04
2019-03-06T02:04:41.060Z,967.05
2019-03-06T02:05:41.028Z,967.07
2019-03-06T02:06:41.055Z,967.05
2019-03-06T02:07:41.005Z,967.07
2019-03-06T02:08:41.017Z,967.02
2019-03-06T02:09:40.990Z,967.07
2019-03-06T02:10:41.600Z,967.06
2019-03-06T02:11:40.968Z,967.12
2019-03-06T02:12:40.994Z,967.08
2019-03-06T02:13:40.944Z,967.07
2019-03-06T02:14:40.829Z,967.05
2019-03-06T02:15:40.913Z,967.04
2019-03-06T02:16:40.904Z,967.08
2019-03-06T02:17:40.903Z,966.92
2019-03-06T02:18:40.877Z,966.93
2019-03-06T02:19:40.781Z,966.94
2019-03-06T02:20:40.876Z,966.88
2019-03-06T02:21:40.851Z,966.96
2019-03-06T02:22:40.845Z,966.94
2019-03-06T02:23:40.827Z,966.94
2019-03-06T02:24:40.849Z,966.92
2019-03-06T02:25:40.791Z,966.93
2019-03-06T02:26:40.806Z,966.97
2019-03-06T02:27:40.782Z,966.98
2019-03-06T02:28:40.763Z,966.98
2019-03-06T02:29:40.750Z,966.92
2019-03-06T02:30:40.689Z,966.94
2019-03-06T02:31:40.660Z,966.96
2019-03-06T02:32:40.727Z,966.89
2019-03-06T02:33:40.740Z,966.86
2019-03-06T02:34:40.705Z,966.88
2019-03-06T02:35:40.721Z,966.89
2019-03-06T02:36:40.729Z,966.90
2019-03-06T02:37:40.706Z,966.84
2019-03-06T02:38:40.658Z,966.89
2019-03-06T02:39:40.671Z,966.90
2019-03-06T02:40:40.683Z,966.85
2019-03-06T02:41:40.650Z,966.85
2019-03-06T02:42:40.724Z,966.88
2019-03-06T02:43:40.620Z,966.88
2019-03-06T02:44:40.505Z,966.89
2019-03-06T02:45:40.598Z,966.92
2019-03-06T02:46:40.612Z,966.92
2019-03-06T02:47:40.595Z,966.88
2019-03-06T02:48:40.622Z,966.89
2019-03-06T02:49:40.553Z,966.94
2019-03-06T02:50:40.527Z,966.85
2019-03-06T02:51:40.512Z,966.89
2019-03-06T02:52:40.523Z,966.78
2019-03-06T02:53:40.547Z,966.81
2019-03-06T02:54:40.525Z,966.79
2019-03-06T02:55:40.482Z,966.76
2019-03-06T02:56:40.491Z,966.86
2019-03-06T02:57:40.443Z,966.78
2019-03-06T02:58:40.468Z,966.85
2019-03-06T02:59:40.477Z,966.83
2019-03-06T03:00:40.444Z,966.83
2019-03-06T03:01:40.418Z,966.84
2019-03-06T03:02:40.407Z,966.80
2019-03-06T03:03:40.382Z,966.84
2019-03-06T03:04:40.379Z,966.83
2019-03-06T03:05:40.375Z,966.81
2019-03-06T03:06:40.400Z,966.83
2019-03-06T03:07:40.379Z,966.78
2019-03-06T03:08:40.323Z,966.76
2019-03-06T03:09:40.326Z,966.74
2019-03-06T03:10:40.310Z,966.73
2019-03-06T03:11:40.319Z,966.75
2019-03-06T03:12:40.326Z,966.68
2019-03-06T03:13:40.191Z,966.68
2019-03-06T03:14:40.268Z,966.75
2019-03-06T03:15:40.283Z,966.70
2019-03-06T03:16:40.259Z,966.69
2019-03-06T03:17:40.242Z,966.75
2019-03-06T03:18:40.305Z,966.78
2019-03-06T03:19:40.214Z,966.73
2019-03-06T03:20:40.196Z,966.78
2019-03-06T03:21:40.214Z,966.79
2019-03-06T03:22:40.179Z,966.69
2019-03-06T03:23:40.162Z,966.74
2019-03-06T03:24:40.220Z,966.69
2019-03-06T03:25:40.178Z,966.58
2019-03-06T03:26:40.141Z,966.64
2019-03-06T03:27:40.128Z,966.61
2019-03-06T03:28:40.109Z,966.63
2019-03-06T03:29:40.094Z,966.61
2019-03-06T03:30:40.133Z,966.63
2019-03-06T03:31:40.137Z,966.60
2019-03-06T03:32:40.072Z,966.60
2019-03-06T03:33:40.076Z,966.60
2019-03-06T03:34:40.055Z,966.55
2019-03-06T03:35:40.061Z,966.56
2019-03-06T03:36:40.061Z,966.55
2019-03-06T03:37:40.017Z,966.51
2019-03-06T03:38:40.001Z,966.49
2019-03-06T03:39:39.986Z,966.52
2019-03-06T03:40:40.009Z,966.45
2019-03-06T03:41:39.965Z,966.38
2019-03-06T03:42:40.317Z,966.40
2019-03-06T03:43:39.981Z,966.44
2019-03-06T03:44:39.944Z,966.46
2019-03-06T03:45:39.937Z,966.40
2019-03-06T03:46:39.940Z,966.45
2019-03-06T03:47:39.929Z,966.41
2019-03-06T03:48:39.931Z,966.47
2019-03-06T03:49:39.892Z,966.39
2019-03-06T03:50:39.896Z,966.38
2019-03-06T03:51:39.859Z,966.40
2019-03-06T03:52:39.844Z,966.43
2019-03-06T03:53:39.855Z,966.44
2019-03-06T03:54:39.859Z,966.44
2019-03-06T03:55:39.842Z,966.38
2019-03-06T03:56:39.834Z,966.40
2019-03-06T03:57:39.791Z,966.46
2019-03-06T03:58:39.801Z,966.44
2019-03-06T03:59:39.790Z,966.42
2019-03-06T04:00:39.815Z,966.46
2019-03-06T04:01:39.797Z,966.44
2019-03-06T04:02:39.761Z,966.39
2019-03-06T04:03:39.824Z,966.41
2019-03-06T04:04:39.747Z,966.37
2019-03-06T04:05:39.722Z,966.37
2019-03-06T04:06:39.767Z,966.37
2019-03-06T04:07:39.685Z,966.37
2019-03-06T04:08:39.753Z,966.32
2019-03-06T04:09:39.673Z,966.33
2019-03-06T04:10:39.656Z,966.33
2019-03-06T04:11:39.634Z,966.39
2019-03-06T04:12:39.591Z,966.36
2019-03-06T04:13:39.618Z,966.43
2019-03-06T04:14:39.602Z,966.40
2019-03-06T04:15:39.614Z,966.38
2019-03-06T04:16:39.511Z,966.39
2019-03-06T04:17:39.571Z,966.36
2019-03-06T04:18:39.622Z,966.37
2019-03-06T04:19:39.554Z,966.37
2019-03-06T04:20:39.545Z,966.36
2019-03-06T04:21:39.533Z,966.37
2019-03-06T04:22:39.523Z,966.40
2019-03-06T04:23:39.539Z,966.36
2019-03-06T04:24:39.597Z,966.36
2019-03-06T04:25:39.486Z,966.36
2019-03-06T04:26:39.488Z,966.30
2019-03-06T04:27:39.484Z,966.35
2019-03-06T04:28:39.464Z,966.31
2019-03-06T04:29:39.510Z,966.31
2019-03-06T04:30:39.456Z,966.33
2019-03-06T04:31:39.424Z,966.24
2019-03-06T04:32:39.423Z,966.23
2019-03-06T04:33:39.434Z,966.10
2019-03-06T04:34:39.409Z,966.16
2019-03-06T04:35:39.479Z,966.21
2019-03-06T04:36:39.380Z,966.14
2019-03-06T04:37:39.386Z,966.09
2019-03-06T04:38:39.347Z,966.19
2019-03-06T04:39:39.330Z,966.16
2019-03-06T04:40:39.322Z,966.02
2019-03-06T04:41:39.359Z,966.04
2019-03-06T04:42:39.307Z,966.01
2019-03-06T04:43:39.280Z,965.93
2019-03-06T04:44:39.309Z,965.98
2019-03-06T04:45:39.291Z,966.00
2019-03-06T04:46:39.268Z,966.00
2019-03-06T04:47:39.273Z,965.96
2019-03-06T04:48:39.264Z,965.97
2019-03-06T04:49:39.227Z,966.07
2019-03-06T04:50:39.227Z,965.92
2019-03-06T04:51:39.213Z,965.95
2019-03-06T04:52:39.237Z,965.94
2019-03-06T04:53:39.327Z,965.90
2019-03-06T04:54:39.187Z,965.94
2019-03-06T04:55:39.205Z,965.90
2019-03-06T04:56:39.089Z,965.89
2019-03-06T04:57:39.150Z,965.91
2019-03-06T04:58:39.123Z,965.87
2019-03-06T04:59:39.189Z,965.82
2019-03-06T05:00:39.128Z,965.83
2019-03-06T05:01:39.109Z,965.87
2019-03-06T05:02:39.153Z,965.88
2019-03-06T05:03:39.075Z,965.86
2019-03-06T05:04:39.102Z,965.92
2019-03-06T05:05:39.067Z,965.85
2019-03-06T05:06:39.060Z,965.81
2019-03-06T05:07:39.041Z,965.82
2019-03-06T05:08:39.033Z,965.90
2019-03-06T05:09:39.051Z,965.85
2019-03-06T05:10:39.026Z,965.85
2019-03-06T05:11:38.986Z,965.88
2019-03-06T05:12:38.972Z,965.87
2019-03-06T05:13:38.974Z,965.83
2019-03-06T05:14:38.987Z,965.83
2019-03-06T05:15:38.956Z,965.82
2019-03-06T05:16:38.995Z,965.86
2019-03-06T05:17:38.936Z,965.91
2019-03-06T05:18:40.363Z,965.80
2019-03-06T05:19:38.901Z,965.81
2019-03-06T05:20:38.899Z,965.85
2019-03-06T05:21:38.875Z,965.85
2019-03-06T05:22:38.902Z,965.82
2019-03-06T05:23:38.874Z,965.81
2019-03-06T05:24:38.840Z,965.77
2019-03-06T05:25:38.875Z,965.77
2019-03-06T05:26:38.856Z,965.80
2019-03-06T05:27:38.806Z,965.77
2019-03-06T05:28:38.838Z,965.71
2019-03-06T05:29:38.804Z,965.76
2019-03-06T05:30:38.772Z,965.69
2019-03-06T05:31:38.794Z,965.71
2019-03-06T05:32:38.768Z,965.74
2019-03-06T05:33:38.790Z,965.75
2019-03-06T05:34:38.753Z,965.67
2019-03-06T05:35:38.752Z,965.76
2019-03-06T05:36:38.717Z,965.79
2019-03-06T05:37:38.732Z,965.73
2019-03-06T05:38:38.709Z,965.73
2019-03-06T05:39:38.720Z,965.69
2019-03-06T05:40:38.678Z,965.70
2019-03-06T05:41:38.657Z,965.69
2019-03-06T05:42:38.649Z,965.70
2019-03-06T05:43:38.665Z,965.70
2019-03-06T05:44:38.661Z,965.60
2019-03-06T05:45:38.657Z,965.64
2019-03-06T05:46:38.601Z,965.60
2019-03-06T05:47:38.624Z,965.65
2019-03-06T05:48:38.572Z,965.63
2019-03-06T05:49:38.571Z,965.64
2019-03-06T05:50:38.604Z,965.65
2019-03-06T05:51:38.584Z,965.63
2019-03-06T05:52:38.547Z,965.59
2019-03-06T05:53:38.531Z,965.55
2019-03-06T05:54:38.513Z,965.53
2019-03-06T05:55:38.520Z,965.58
2019-03-06T05:56:38.519Z,965.57
2019-03-06T05:57:38.542Z,965.52
2019-03-06T05:58:38.475Z,965.55
2019-03-06T05:59:38.467Z,965.57
2019-03-06T06:00:38.473Z,965.51
2019-03-06T06:01:38.440Z,965.55
2019-03-06T06:02:38.429Z,965.58
2019-03-06T06:03:38.466Z,965.56
2019-03-06T06:04:38.446Z,965.55
2019-03-06T06:05:38.394Z,965.57
2019-03-06T06:06:38.388Z,965.52
2019-03-06T06:07:38.392Z,965.58
2019-03-06T06:08:38.383Z,965.56
2019-03-06T06:09:38.369Z,965.56
2019-03-06T06:10:38.379Z,965.55
2019-03-06T06:11:38.327Z,965.50
2019-03-06T06:12:38.315Z,965.54
2019-03-06T06:13:38.341Z,965.56
2019-03-06T06:14:38.316Z,965.61
2019-03-06T06:15:38.303Z,965.56
2019-03-06T06:16:38.320Z,965.56
2019-03-06T06:17:38.266Z,965.57
2019-03-06T06:18:38.290Z,965.57
2019-03-06T06:19:38.251Z,965.58
2019-03-06T06:20:38.228Z,965.56
2019-03-06T06:21:38.216Z,965.62
2019-03-06T06:22:38.284Z,965.65
2019-03-06T06:23:38.214Z,965.60
2019-03-06T06:24:38.213Z,965.59
2019-03-06T06:25:38.198Z,965.59
2019-03-06T06:26:38.082Z,965.55
2019-03-06T06:27:38.057Z,965.55
2019-03-06T06:28:38.362Z,965.54
2019-03-06T06:29:38.151Z,965.48
2019-03-06T06:30:38.054Z,965.50
2019-03-06T06:31:38.031Z,965.44
2019-03-06T06:32:38.023Z,965.35
2019-03-06T06:33:38.125Z,965.35
2019-03-06T06:34:38.120Z,965.37
2019-03-06T06:35:38.092Z,965.39
2019-03-06T06:36:37.974Z,965.34
2019-03-06T06:37:38.068Z,965.31
2019-03-06T06:38:38.057Z,965.35
2019-03-06T06:39:37.969Z,965.37
2019-03-06T06:40:38.030Z,965.44
2019-03-06T06:41:38.038Z,965.36
2019-03-06T06:42:37.912Z,965.38
2019-03-06T06:43:37.936Z,965.42
2019-03-06T06:44:37.881Z,965.40
2019-03-06T06:45:37.952Z,965.45
2019-03-06T06:46:37.883Z,965.36
2019-03-06T06:47:37.971Z,965.32
2019-03-06T06:48:37.856Z,965.35
2019-03-06T06:49:37.879Z,965.28
2019-03-06T06:50:37.812Z,965.26
2019-03-06T06:51:37.797Z,965.28
2019-03-06T06:52:37.801Z,965.30
2019-03-06T06:53:37.823Z,965.29
2019-03-06T06:54:37.765Z,965.30
2019-03-06T06:55:37.785Z,965.31
2019-03-06T06:56:37.758Z,965.26
2019-03-06T06:57:37.750Z,965.26
2019-03-06T06:58:37.821Z,965.26
2019-03-06T06:59:37.708Z,965.27
2019-03-06T07:00:37.700Z,965.23
2019-03-06T07:01:37.725Z,965.20
2019-03-06T07:02:37.685Z,965.20
2019-03-06T07:03:37.674Z,965.18
2019-03-06T07:04:37.663Z,965.22
2019-03-06T07:05:37.643Z,965.18
2019-03-06T07:06:37.638Z,965.11
2019-03-06T07:07:37.681Z,965.11
2019-03-06T07:08:37.612Z,965.08
2019-03-06T07:09:37.613Z,965.14
2019-03-06T07:10:37.592Z,965.12
2019-03-06T07:11:37.586Z,965.09
2019-03-06T07:12:37.594Z,965.10
2019-03-06T07:13:37.618Z,965.06
2019-03-06T07:14:37.574Z,965.01
2019-03-06T07:15:37.529Z,964.99
2019-03-06T07:16:37.529Z,964.98
2019-03-06T07:17:37.570Z,964.92
2019-03-06T07:18:37.512Z,964.96
2019-03-06T07:19:37.537Z,964.91
2019-03-06T07:20:37.494Z,964.94
2019-03-06T07:21:37.479Z,964.87
2019-03-06T07:22:37.477Z,964.92
2019-03-06T07:23:37.446Z,964.95
2019-03-06T07:24:37.578Z,964.93
2019-03-06T07:25:37.472Z,965.00
2019-03-06T07:26:37.435Z,965.00
2019-03-06T07:27:37.419Z,964.98
2019-03-06T07:28:38.315Z,964.99
2019-03-06T07:29:37.387Z,964.94
2019-03-06T07:30:37.384Z,964.90
2019-03-06T07:31:37.384Z,964.83
2019-03-06T07:32:37.359Z,964.79
2019-03-06T07:33:37.445Z,964.74
2019-03-06T07:34:37.432Z,964.68
2019-03-06T07:35:37.346Z,964.67
2019-03-06T07:36:37.352Z,964.73
2019-03-06T07:37:37.360Z,964.69
2019-03-06T07:38:37.296Z,964.72
2019-03-06T07:39:37.400Z,964.68
2019-03-06T07:40:37.369Z,964.61
2019-03-06T07:41:37.257Z,964.64
2019-03-06T07:42:37.283Z,964.59
2019-03-06T07:43:37.284Z,964.53
2019-03-06T07:44:37.236Z,964.46
2019-03-06T07:45:37.199Z,964.57
2019-03-06T07:46:37.199Z,964.52
2019-03-06T07:47:37.188Z,964.46
2019-03-06T07:48:37.244Z,964.47
2019-03-06T07:49:44.732Z,964.45
2019-03-06T07:50:38.165Z,964.47
2019-03-06T07:51:37.155Z,964.47
2019-03-06T07:52:37.134Z,964.52
2019-03-06T07:53:37.119Z,964.44
2019-03-06T07:54:37.149Z,964.47
2019-03-06T07:55:37.111Z,964.51
2019-03-06T07:56:37.097Z,964.50
2019-03-06T07:57:37.099Z,964.49
2019-03-06T07:58:37.195Z,964.42
2019-03-06T07:59:37.073Z,964.47
2019-03-06T08:00:37.163Z,964.48
2019-03-06T08:01:37.077Z,964.52
2019-03-06T08:02:37.036Z,964.46
2019-03-06T08:03:37.034Z,964.51
2019-03-06T08:04:38.083Z,964.50
2019-03-06T08:05:37.004Z,964.46
2019-03-06T08:06:37.042Z,964.47
2019-03-06T08:07:36.973Z,964.41
2019-03-06T08:08:37.070Z,964.42
2019-03-06T08:09:36.956Z,964.41
2019-03-06T08:10:36.952Z,964.36
2019-03-06T08:11:36.937Z,964.39
2019-03-06T08:12:37.412Z,964.43
2019-03-06T08:13:37.018Z,964.39
2019-03-06T08:14:37.036Z,964.43
2019-03-06T08:15:36.974Z,964.45
2019-03-06T08:16:36.959Z,964.39
2019-03-06T08:17:36.955Z,964.31
2019-03-06T08:18:37.011Z,964.41
2019-03-06T08:19:36.946Z,964.37
2019-03-06T08:20:36.921Z,964.33
2019-03-06T08:21:36.833Z,964.14
2019-03-06T08:22:36.809Z,964.17
2019-03-06T08:23:36.916Z,964.27
2019-03-06T08:24:37.249Z,964.29
2019-03-06T08:25:36.780Z,964.28
2019-03-06T08:26:36.763Z,964.28
2019-03-06T08:27:36.869Z,964.24
2019-03-06T08:28:36.848Z,964.26
2019-03-06T08:29:36.733Z,964.22
2019-03-06T08:30:36.794Z,964.20
2019-03-06T08:31:36.707Z,964.13
2019-03-06T08:32:36.810Z,964.10
2019-03-06T08:33:36.800Z,964.07
2019-03-06T08:34:36.803Z,964.02
2019-03-06T08:35:36.664Z,964.08
2019-03-06T08:36:36.690Z,964.04
2019-03-06T08:37:36.763Z,963.92
2019-03-06T08:38:36.654Z,963.91
2019-03-06T08:39:36.702Z,963.92
2019-03-06T08:40:36.619Z,963.86
2019-03-06T08:41:36.624Z,963.92
2019-03-06T08:42:36.659Z,963.95
2019-03-06T08:43:36.721Z,963.90
2019-03-06T08:44:36.660Z,963.91
2019-03-06T08:45:36.673Z,963.83
2019-03-06T08:46:36.666Z,963.84
2019-03-06T08:47:36.642Z,963.79
2019-03-06T08:48:36.662Z,963.80
2019-03-06T08:49:36.653Z,963.84
2019-03-06T08:50:36.617Z,963.81
2019-03-06T08:51:36.595Z,963.84
2019-03-06T08:52:36.607Z,963.85
2019-03-06T08:53:36.471Z,963.82
2019-03-06T08:54:36.536Z,963.82
2019-03-06T08:55:36.453Z,963.80
2019-03-06T08:56:36.543Z,963.78
2019-03-06T08:57:36.532Z,963.80
2019-03-06T08:58:36.517Z,963.76
2019-03-06T08:59:36.505Z,963.74
2019-03-06T09:00:36.526Z,963.70
2019-03-06T09:01:36.517Z,963.74
2019-03-06T09:02:36.485Z,963.71
2019-03-06T09:03:36.463Z,963.76
2019-03-06T09:04:36.458Z,963.71
2019-03-06T09:05:36.437Z,963.71
2019-03-06T09:06:36.604Z,963.69
2019-03-06T09:07:36.428Z,963.70
2019-03-06T09:08:36.408Z,963.71
2019-03-06T09:09:36.382Z,963.59
2019-03-06T09:10:36.388Z,963.61
2019-03-06T09:11:36.370Z,963.65
2019-03-06T09:12:36.391Z,963.59
2019-03-06T09:13:36.349Z,963.57
2019-03-06T09:14:36.353Z,963.62
2019-03-06T09:15:36.343Z,963.58
2019-03-06T09:16:36.322Z,963.58
2019-03-06T09:17:36.302Z,963.53
2019-03-06T09:18:36.341Z,963.55
2019-03-06T09:19:36.281Z,963.48
2019-03-06T09:20:40.705Z,963.45
2019-03-06T09:21:36.253Z,963.46
2019-03-06T09:22:36.279Z,963.38
2019-03-06T09:23:36.246Z,963.45
2019-03-06T09:24:36.293Z,963.44
2019-03-06T09:25:36.842Z,963.39
2019-03-06T09:26:36.224Z,963.42
2019-03-06T09:27:36.222Z,963.40
2019-03-06T09:28:36.204Z,963.31
2019-03-06T09:29:36.207Z,963.35
2019-03-06T09:30:36.240Z,963.33
2019-03-06T09:31:36.186Z,963.33
2019-03-06T09:32:36.134Z,963.29
2019-03-06T09:33:36.146Z,963.29
2019-03-06T09:34:36.128Z,963.23
2019-03-06T09:35:36.184Z,963.25
2019-03-06T09:36:36.165Z,963.15
2019-03-06T09:37:36.086Z,963.07
2019-03-06T09:38:36.109Z,963.07
2019-03-06T09:39:36.058Z,963.10
2019-03-06T09:40:36.102Z,963.06
2019-03-06T09:41:36.091Z,963.04
2019-03-06T09:42:36.085Z,963.06
2019-03-06T09:43:36.062Z,963.03
2019-03-06T09:44:36.027Z,963.07
2019-03-06T09:45:36.015Z,963.00
2019-03-06T09:46:36.023Z,963.02
2019-03-06T09:47:35.971Z,963.00
2019-03-06T09:48:36.011Z,962.98
2019-03-06T09:49:35.997Z,962.99
2019-03-06T09:50:35.972Z,962.94
2019-03-06T09:51:35.927Z,962.95
2019-03-06T09:52:35.921Z,962.96
2019-03-06T09:53:35.969Z,963.01
2019-03-06T09:54:37.940Z,962.94
2019-03-06T09:55:35.904Z,962.94
2019-03-06T09:56:35.864Z,962.95
2019-03-06T09:57:35.876Z,962.99
2019-03-06T09:58:35.860Z,963.02
2019-03-06T09:59:35.880Z,962.96
2019-03-06T10:00:35.876Z,962.98
2019-03-06T10:01:35.819Z,962.93
2019-03-06T10:02:35.844Z,962.85
2019-03-06T10:03:35.848Z,962.85
2019-03-06T10:04:35.788Z,962.82
2019-03-06T10:05:35.775Z,962.79
2019-03-06T10:06:35.879Z,962.83
2019-03-06T10:07:35.762Z,962.79
2019-03-06T10:08:35.838Z,962.81
2019-03-06T10:09:35.742Z,962.78
2019-03-06T10:10:35.714Z,962.76
2019-03-06T10:11:35.733Z,962.75
2019-03-06T10:12:35.876Z,962.68
2019-03-06T10:13:41.715Z,962.72
2019-03-06T10:14:36.700Z,962.66
2019-03-06T10:15:35.692Z,962.64
2019-03-06T10:16:35.658Z,962.65
2019-03-06T10:17:35.644Z,962.66
2019-03-06T10:18:35.686Z,962.68
2019-03-06T10:19:35.623Z,962.67
2019-03-06T10:20:35.628Z,962.67
2019-03-06T10:21:35.640Z,962.58
2019-03-06T10:22:35.615Z,962.64
2019-03-06T10:23:35.582Z,962.62
2019-03-06T10:24:35.628Z,962.61
2019-03-06T10:25:35.623Z,962.53
2019-03-06T10:26:35.584Z,962.52
2019-03-06T10:27:35.630Z,962.46
2019-03-06T10:28:36.643Z,962.47
2019-03-06T10:29:35.533Z,962.48
2019-03-06T10:30:35.581Z,962.43
2019-03-06T10:31:35.538Z,962.43
2019-03-06T10:32:35.505Z,962.38
2019-03-06T10:33:35.509Z,962.38
2019-03-06T10:34:35.481Z,962.38
2019-03-06T10:35:35.469Z,962.31
2019-03-06T10:36:35.542Z,962.27
2019-03-06T10:37:35.416Z,962.33
2019-03-06T10:38:35.442Z,962.38
2019-03-06T10:39:35.419Z,962.23
2019-03-06T10:40:35.403Z,962.28
2019-03-06T10:41:35.399Z,962.30
2019-03-06T10:42:35.420Z,962.26
2019-03-06T10:43:35.377Z,962.26
2019-03-06T10:44:35.348Z,962.29
2019-03-06T10:45:41.308Z,962.17
2019-03-06T10:46:36.340Z,962.20
2019-03-06T10:47:35.354Z,962.23
2019-03-06T10:48:35.345Z,962.22
2019-03-06T10:49:35.317Z,962.19
2019-03-06T10:50:35.318Z,962.19
2019-03-06T10:51:35.312Z,962.16
2019-03-06T10:52:35.264Z,962.16
2019-03-06T10:53:41.472Z,962.09
2019-03-06T10:54:44.293Z,962.12
2019-03-06T10:55:36.235Z,962.09
2019-03-06T10:56:35.216Z,962.06
2019-03-06T10:57:35.247Z,962.09
2019-03-06T10:58:35.217Z,962.08
2019-03-06T10:59:35.203Z,962.03
2019-03-06T11:00:35.268Z,962.07
2019-03-06T11:01:35.185Z,961.97
2019-03-06T11:02:35.161Z,962.00
2019-03-06T11:03:35.144Z,962.00
2019-03-06T11:04:35.140Z,961.98
2019-03-06T11:05:35.112Z,961.92
2019-03-06T11:06:35.142Z,961.94
2019-03-06T11:07:35.102Z,961.91
2019-03-06T11:08:35.088Z,961.85
2019-03-06T11:09:35.088Z,961.79
2019-03-06T11:10:35.085Z,961.79
2019-03-06T11:11:35.045Z,961.79
2019-03-06T11:12:35.116Z,961.76
2019-03-06T11:13:35.054Z,961.71
2019-03-06T11:14:35.040Z,961.73
2019-03-06T11:15:35.017Z,961.71
2019-03-06T11:16:37.302Z,961.72
2019-03-06T11:17:35.028Z,961.71
2019-03-06T11:18:35.027Z,961.74
2019-03-06T11:19:34.989Z,961.75
2019-03-06T11:20:35.004Z,961.67
2019-03-06T11:21:34.950Z,961.63
2019-03-06T11:22:34.943Z,961.55
2019-03-06T11:23:34.951Z,961.52
2019-03-06T11:24:34.970Z,961.49
2019-03-06T11:25:34.909Z,961.55
2019-03-06T11:26:34.891Z,961.52
2019-03-06T11:27:34.896Z,961.45
2019-03-06T11:28:34.865Z,961.47
2019-03-06T11:29:34.858Z,961.44
2019-03-06T11:30:34.900Z,961.41
2019-03-06T11:31:34.861Z,961.41
2019-03-06T11:32:34.826Z,961.33
2019-03-06T11:33:36.762Z,961.33
2019-03-06T11:34:34.823Z,961.33
2019-03-06T11:35:34.806Z,961.32
2019-03-06T11:36:34.868Z,961.29
2019-03-06T11:37:34.826Z,961.23
2019-03-06T11:38:34.774Z,961.18
2019-03-06T11:39:34.764Z,961.17
2019-03-06T11:40:34.762Z,961.19
2019-03-06T11:41:34.757Z,961.20
2019-03-06T11:42:34.754Z,961.20
2019-03-06T11:43:34.706Z,961.14
2019-03-06T11:44:34.720Z,961.12
2019-03-06T11:45:34.703Z,961.08
2019-03-06T11:46:34.674Z,961.05
2019-03-06T11:47:34.681Z,961.05
2019-03-06T11:48:34.741Z,960.95
2019-03-06T11:49:34.649Z,961.07
2019-03-06T11:50:40.868Z,961.11
2019-03-06T11:51:35.626Z,961.11
2019-03-06T11:52:34.961Z,961.03
2019-03-06T11:53:34.618Z,960.97
2019-03-06T11:54:34.649Z,960.90
2019-03-06T11:55:34.599Z,960.92
2019-03-06T11:56:34.587Z,960.93
2019-03-06T11:57:34.563Z,960.90
2019-03-06T11:58:34.583Z,960.87
2019-03-06T11:59:34.546Z,960.87
2019-03-06T12:00:34.558Z,960.80
2019-03-06T12:01:34.522Z,960.78
2019-03-06T12:02:34.550Z,960.68
2019-03-06T12:03:34.493Z,960.62
2019-03-06T12:04:34.489Z,960.62
2019-03-06T12:05:34.522Z,960.64
2019-03-06T12:06:34.499Z,960.62
2019-03-06T12:07:34.484Z,960.65
2019-03-06T12:08:34.475Z,960.65
2019-03-06T12:09:34.448Z,960.58
2019-03-06T12:10:34.429Z,960.62
2019-03-06T12:11:35.220Z,960.56
2019-03-06T12:12:34.535Z,960.56
2019-03-06T12:13:34.436Z,960.60
2019-03-06T12:14:34.390Z,960.53
2019-03-06T12:15:34.363Z,960.47
2019-03-06T12:16:41.622Z,960.36
2019-03-06T12:17:35.429Z,960.43
2019-03-06T12:18:34.352Z,960.37
2019-03-06T12:19:34.344Z,960.39
2019-03-06T12:20:34.318Z,960.34
2019-03-06T12:21:34.299Z,960.34
2019-03-06T12:22:34.297Z,960.28
2019-03-06T12:23:34.324Z,960.32
2019-03-06T12:24:34.273Z,960.25
2019-03-06T12:25:34.323Z,960.26
2019-03-06T12:26:34.258Z,960.25
2019-03-06T12:27:34.278Z,960.27
2019-03-06T12:28:34.253Z,960.23